Time;durP1;ratioP1;P1;durP2;ratioP2;P2;SDS_P1;SDS_P2;PMS_P1;PMS_P2;Temp;Humidity;BMP_temperature;BMP_pressure;BME280_temperature;BME280_humidity;BME280_pressure;Samples;Min_cycle;Max_cycle;Signal;HPM_P1;HPM_P2
2022/05/23 00:01:51;;;;;;;21.30;3.78;;;;;;;26.15;53.14;96875.84;4908418;29;20110;-62
2022/05/23 00:04:47;;;;;;;15.60;4.22;;;;;;;26.11;53.01;96864.81;4907487;29;20052;-62
2022/05/23 00:07:30;;;;;;;15.07;3.95;;;;;;;26.06;53.11;96847.91;4907611;29;20059;-62
2022/05/23 00:10:21;;;;;;;16.48;3.92;;;;;;;26.00;53.00;96843.41;4897555;29;20048;-62
2022/05/23 00:13:03;;;;;;;19.00;3.97;;;;;;;26.08;53.03;96851.19;4887876;29;20045;-62
2022/05/23 00:15:58;;;;;;;13.13;5.70;;;;;;;25.98;53.87;96862.06;4890117;28;20156;-62
2022/05/23 00:18:47;;;;;;;10.45;4.05;;;;;;;26.07;52.86;96850.38;4898931;29;20048;-62
2022/05/23 00:21:37;;;;;;;20.58;4.28;;;;;;;26.03;53.05;96853.56;4899147;29;20112;-62
2022/05/23 00:24:20;;;;;;;9.77;3.67;;;;;;;26.07;53.19;96868.84;4892867;29;20056;-61
2022/05/23 00:27:10;;;;;;;14.93;3.78;;;;;;;26.09;54.74;96887.16;4898159;29;20060;-62
2022/05/23 00:29:56;;;;;;;14.38;3.42;;;;;;;25.96;54.42;96887.81;4897744;29;20064;-62
2022/05/23 00:35:54;;;;;;;14.90;4.50;;;;;;;25.55;56.19;96906.78;4897266;29;20134;-61
2022/05/23 00:38:36;;;;;;;13.85;4.03;;;;;;;25.69;57.70;96913.09;4896748;29;20040;-63
2022/05/23 00:44:38;;;;;;;11.80;4.00;;;;;;;25.55;60.63;96919.13;4906025;29;20052;-62
2022/05/23 00:47:28;;;;;;;10.57;4.30;;;;;;;25.11;60.76;96916.50;4907419;29;20060;-61
2022/05/23 00:50:11;;;;;;;15.15;5.53;;;;;;;25.08;61.48;96906.31;4905987;29;20052;-63
2022/05/23 00:53:01;;;;;;;9.30;4.35;;;;;;;25.06;62.34;96889.88;4904791;29;20064;-62
2022/05/23 00:55:54;;;;;;;11.55;3.58;;;;;;;24.99;61.58;96870.50;4870810;29;20609;-63
2022/05/23 00:58:50;;;;;;;15.68;3.60;;;;;;;24.87;61.92;96896.47;4887957;29;20118;-63
2022/05/23 01:01:43;;;;;;;14.55;3.17;;;;;;;24.96;63.05;96923.56;4872437;29;20481;-62
2022/05/23 01:04:37;;;;;;;19.23;5.00;;;;;;;24.99;61.31;96939.00;4888008;29;20125;-63
2022/05/23 01:07:26;;;;;;;5.55;3.33;;;;;;;24.98;63.03;96954.00;4872931;29;20132;-62
2022/05/23 01:10:22;;;;;;;6.50;3.63;;;;;;;24.92;63.03;96948.63;4871797;29;20549;-63
2022/05/23 01:12:58;;;;;;;10.70;3.38;;;;;;;24.93;64.02;96945.00;4872639;29;20061;-63
2022/05/23 01:15:49;;;;;;;12.88;4.45;;;;;;;24.83;66.66;96953.13;4873719;29;20056;-62
2022/05/23 01:18:44;;;;;;;11.32;4.40;;;;;;;24.77;66.54;96946.75;4872351;29;20657;-62
2022/05/23 01:21:41;;;;;;;15.63;4.60;;;;;;;24.71;74.48;96936.94;4874284;29;20509;-62
2022/05/23 01:24:48;;;;;;;13.25;4.25;;;;;;;24.50;73.05;96941.22;4874904;29;20061;-62
2022/05/23 01:27:37;;;;;;;10.82;3.90;;;;;;;24.69;72.39;96944.19;4893048;29;20060;-63
2022/05/23 01:30:28;;;;;;;11.05;4.00;;;;;;;24.61;69.97;96953.97;4893265;29;20203;-64
2022/05/23 01:33:19;;;;;;;11.33;3.80;;;;;;;24.69;72.80;96943.38;4887649;29;20045;-63
2022/05/23 01:36:11;;;;;;;17.00;5.28;;;;;;;24.58;72.65;96949.06;4871665;29;20068;-63
2022/05/23 01:38:53;;;;;;;12.75;4.30;;;;;;;24.63;72.60;96970.41;4891324;29;20406;-64
2022/05/23 01:41:42;;;;;;;11.73;3.95;;;;;;;24.74;69.01;96994.50;4889743;29;20102;-64
2022/05/23 01:44:24;;;;;;;10.07;3.85;;;;;;;24.68;68.38;96992.59;4889819;29;20140;-64
2022/05/23 01:47:22;;;;;;;14.00;4.32;;;;;;;24.60;69.15;96987.38;4889973;29;20044;-64
2022/05/23 01:50:11;;;;;;;14.07;3.65;;;;;;;24.49;68.92;96974.63;4889637;29;20053;-63
2022/05/23 01:53:06;;;;;;;13.90;4.15;;;;;;;24.61;68.19;96949.50;4891398;29;20076;-64
2022/05/23 01:56:08;;;;;;;13.60;3.92;;;;;;;24.67;68.50;96950.63;4890000;29;20115;-64
2022/05/23 02:02:06;;;;;;;8.80;4.43;;;;;;;24.75;69.38;97034.84;4908262;29;20048;-64
2022/05/23 02:04:56;;;;;;;10.70;3.92;;;;;;;24.75;67.94;97054.09;4908613;29;20456;-64
2022/05/23 02:07:39;;;;;;;12.30;3.80;;;;;;;24.72;68.53;97043.13;4908013;29;20052;-64
2022/05/23 02:10:28;;;;;;;10.32;4.40;;;;;;;24.71;68.65;97010.69;4908624;29;20116;-63
2022/05/23 02:13:26;;;;;;;19.73;4.18;;;;;;;24.78;68.34;97001.09;4909313;29;20066;-64
2022/05/23 02:16:16;;;;;;;16.75;5.63;;;;;;;24.89;71.15;96997.22;4885335;29;20140;-64
2022/05/23 02:19:08;;;;;;;11.18;3.88;;;;;;;24.82;70.48;96995.47;4878604;29;20040;-64
2022/05/23 02:21:59;;;;;;;10.30;3.78;;;;;;;24.93;68.24;97008.25;4904352;29;20052;-62
2022/05/23 02:24:54;;;;;;;15.80;3.55;;;;;;;25.04;68.00;97010.47;4881110;29;20052;-62
2022/05/23 02:27:31;;;;;;;13.65;3.60;;;;;;;25.42;68.61;97019.19;4878851;29;20056;-62
2022/05/23 02:30:20;;;;;;;16.58;3.70;;;;;;;25.55;64.93;97006.19;4900550;29;20159;-63
2022/05/23 02:33:02;;;;;;;9.75;3.78;;;;;;;25.35;66.83;97003.25;4881557;29;20169;-62
2022/05/23 02:35:56;;;;;;;19.70;3.95;;;;;;;25.22;67.15;97003.06;4885845;29;20605;-62
2022/05/23 02:38:38;;;;;;;5.32;3.08;;;;;;;25.24;66.10;97003.69;4880149;29;20052;-63
2022/05/23 02:41:28;;;;;;;13.13;4.07;;;;;;;25.36;65.66;97001.44;4905671;29;20070;-62
2022/05/23 02:44:11;;;;;;;;;;;;;;;25.96;63.83;97011.03;4894253;29;20057;-62
2022/05/23 02:47:01;;;;;;;12.25;3.83;;;;;;;25.94;63.00;97035.00;4903011;29;20713;-63
2022/05/23 02:49:47;;;;;;;11.60;3.45;;;;;;;25.83;64.51;97025.72;4903291;29;20103;-62
2022/05/23 02:52:48;;;;;;;23.45;4.90;;;;;;;25.72;64.64;97026.16;4878091;29;20117;-63
2022/05/23 02:55:38;;;;;;;15.32;4.63;;;;;;;25.75;63.58;97020.53;4879390;29;20044;-63
2022/05/23 02:58:27;;;;;;;18.50;3.63;;;;;;;25.68;62.18;97029.34;4881127;29;20071;-63
2022/05/23 03:01:19;;;;;;;18.10;3.67;;;;;;;25.88;63.85;97025.16;4883805;29;20621;-63
2022/05/23 03:04:02;;;;;;;23.50;4.15;;;;;;;25.65;62.89;97025.22;4901170;29;20377;-63
2022/05/23 03:06:51;;;;;;;12.75;3.63;;;;;;;25.78;65.46;97035.97;4902732;29;20119;-63
2022/05/23 03:09:46;;;;;;;17.58;4.10;;;;;;;25.55;65.87;97030.75;4880744;29;20103;-63
2022/05/23 03:12:21;;;;;;;16.85;3.45;;;;;;;25.67;63.69;97025.88;4880984;29;20060;-62
2022/05/23 03:15:11;;;;;;;22.10;3.60;;;;;;;25.85;62.73;97025.53;4895109;29;20056;-62
2022/05/23 03:17:54;;;;;;;22.40;4.95;;;;;;;25.92;61.53;97034.34;4896263;28;20820;-63
2022/05/23 03:20:47;;;;;;;15.02;3.90;;;;;;;25.85;61.41;97012.34;4901337;29;20499;-63
2022/05/23 03:29:44;;;;;;;16.02;3.58;;;;;;;25.93;62.19;97038.63;4876985;29;20598;-62
2022/05/23 03:32:43;;;;;;;13.57;3.50;;;;;;;25.91;62.80;97030.06;4878707;29;20068;-62
2022/05/23 03:35:27;;;;;;;14.77;3.63;;;;;;;25.70;64.24;97022.06;4863711;29;20052;-63
2022/05/23 03:38:16;;;;;;;26.48;4.57;;;;;;;25.81;63.07;97016.31;4869290;29;20052;-63
2022/05/23 03:40:58;;;;;;;26.15;3.80;;;;;;;25.66;62.53;97004.94;4870986;29;20060;-63
2022/05/23 03:43:54;;;;;;;22.02;4.20;;;;;;;25.65;63.58;97029.69;4869134;29;20465;-62
2022/05/23 03:46:29;;;;;;;16.08;4.07;;;;;;;25.84;61.98;97026.53;4872090;29;20084;-63
2022/05/23 03:49:25;;;;;;;18.08;3.45;;;;;;;26.06;64.20;97025.59;4869433;29;20053;-63
2022/05/23 03:52:00;;;;;;;16.90;3.65;;;;;;;26.12;63.32;97035.41;4871140;29;20053;-63
2022/05/23 03:54:56;;;;;;;26.50;4.68;;;;;;;26.01;62.73;97046.47;4869335;29;20819;-63
2022/05/23 03:57:31;;;;;;;15.10;3.63;;;;;;;26.05;62.05;97052.16;4873270;29;20048;-63
2022/05/23 04:00:21;;;;;;;14.93;4.22;;;;;;;25.86;63.17;97043.00;4884367;29;20140;-64
2022/05/23 04:03:04;;;;;;;26.40;4.57;;;;;;;25.87;65.06;97052.53;4908695;29;20059;-63
2022/05/23 04:05:55;;;;;;;13.27;3.95;;;;;;;25.89;64.02;97058.47;4898284;29;20331;-63
2022/05/23 04:08:42;;;;;;;22.88;4.25;;;;;;;25.94;65.74;97086.97;4893676;29;20044;-63
2022/05/23 04:11:31;;;;;;;24.52;4.05;;;;;;;25.92;63.42;97102.97;4901702;29;20065;-62
2022/05/23 04:14:22;;;;;;;27.00;3.80;;;;;;;25.91;63.62;97103.97;4899518;29;20512;-63
2022/05/23 04:17:18;;;;;;;35.17;3.85;;;;;;;25.83;67.23;97085.56;4909882;29;20055;-64
2022/05/23 04:20:14;;;;;;;16.83;3.55;;;;;;;25.63;64.64;97058.06;4879445;29;20045;-63
2022/05/23 04:23:29;;;;;;;19.35;3.50;;;;;;;25.75;65.52;97051.34;4878209;29;20060;-63
2022/05/23 04:26:13;;;;;;;13.98;3.92;;;;;;;25.68;64.96;97055.72;4880193;29;20056;-64
2022/05/23 04:29:02;;;;;;;19.83;3.30;;;;;;;25.83;65.41;97082.94;4885860;29;20052;-63
2022/05/23 04:31:46;;;;;;;16.80;3.58;;;;;;;25.78;66.12;97078.19;4880187;29;20056;-64
2022/05/23 04:37:52;;;;;;;13.02;2.80;;;;;;;26.70;60.89;97083.88;4878973;29;20053;-63
2022/05/23 04:40:45;;;;;;;16.65;2.85;;;;;;;27.50;60.03;97094.25;4880577;29;20084;-63
2022/05/23 04:43:44;;;;;;;21.80;3.90;;;;;;;27.44;60.67;97102.97;4889716;29;20054;-64
2022/05/23 04:46:31;;;;;;;29.15;3.42;;;;;;;27.54;60.52;97107.97;4881157;29;20148;-63
2022/05/23 04:52:44;;;;;;;20.73;3.65;;;;;;;28.42;58.10;97068.38;4901482;29;20376;-64
2022/05/23 04:55:38;;;;;;;23.23;3.17;;;;;;;28.57;56.90;97059.50;4890881;29;20412;-65
2022/05/23 04:58:28;;;;;;;21.88;3.88;;;;;;;28.85;56.61;97062.84;4882280;29;20688;-63
2022/05/23 05:01:11;;;;;;;24.08;3.60;;;;;;;28.65;55.79;97080.53;4906194;29;20104;-63
2022/05/23 05:04:01;;;;;;;32.92;10.38;;;;;;;28.64;56.02;97114.16;4903386;29;20147;-65
2022/05/23 05:06:50;;;;;;;38.92;9.88;;;;;;;28.55;57.68;97126.75;4902756;29;20160;-62
2022/05/23 05:09:39;;;;;;;28.92;7.40;;;;;;;28.23;56.92;97143.31;4864952;29;20056;-64
2022/05/23 05:12:29;;;;;;;17.30;5.88;;;;;;;28.05;56.59;97158.84;4879268;29;20065;-64
2022/05/23 05:15:11;;;;;;;;;;;;;;;27.89;56.13;97175.00;4890695;29;20577;-64
2022/05/23 05:18:02;;;;;;;16.30;3.05;;;;;;;27.90;57.63;97181.94;4889936;29;19927;-64
2022/05/23 05:20:49;;;;;;;21.60;4.03;;;;;;;27.69;59.26;97191.56;4890238;29;20471;-64
2022/05/23 05:23:58;;;;;;;24.33;3.95;;;;;;;27.24;59.69;97170.72;4858655;29;20085;-64
2022/05/23 05:27:04;;;;;;;30.90;4.57;;;;;;;27.32;59.23;97170.59;4889609;29;20045;-65
2022/05/23 05:29:47;;;;;;;19.75;3.70;;;;;;;27.41;62.19;97178.22;4894231;29;20373;-64
2022/05/23 05:32:50;;;;;;;24.20;4.00;;;;;;;27.37;61.91;97187.56;4886141;29;20147;-66
2022/05/23 05:35:38;;;;;;;28.17;3.78;;;;;;;27.34;60.16;97209.09;4889872;29;20056;-66
2022/05/23 05:38:49;;;;;;;13.90;2.97;;;;;;;27.44;63.59;97224.66;4892408;28;20052;-65
2022/05/23 05:41:50;;;;;;;24.35;3.38;;;;;;;27.41;60.96;97230.31;4878273;29;20499;-66
2022/05/23 05:44:52;;;;;;;27.15;4.13;;;;;;;27.35;59.94;97220.50;4895384;29;20057;-65
2022/05/23 05:47:44;;;;;;;29.73;4.80;;;;;;;27.34;62.59;97208.25;4898459;29;20377;-66
2022/05/23 05:50:44;;;;;;;25.27;3.92;;;;;;;27.29;63.91;97206.19;4890978;29;20045;-64
2022/05/23 05:53:38;;;;;;;34.17;5.20;;;;;;;27.25;63.09;97204.09;4905183;29;20218;-67
2022/05/23 05:56:43;;;;;;;18.30;3.65;;;;;;;27.32;63.15;97199.69;4873793;29;20534;-69
2022/05/23 05:59:28;;;;;;;15.65;3.30;;;;;;;27.30;64.88;97186.66;4871253;29;20370;-69
2022/05/23 06:02:19;;;;;;;15.03;3.67;;;;;;;27.35;62.87;97178.97;4870767;29;20866;-69
2022/05/23 06:05:08;;;;;;;12.65;3.72;;;;;;;27.61;62.51;97167.88;4889240;29;20582;-69
2022/05/23 06:11:47;;;;;;;19.80;3.75;;;;;;;28.45;62.73;97160.75;4890668;29;20149;-70
2022/05/23 06:14:25;;;;;;;13.68;3.20;;;;;;;28.92;60.45;97188.31;4886901;29;20051;-70
2022/05/23 06:17:15;;;;;;;12.55;3.42;;;;;;;28.97;60.63;97207.13;4884854;29;20079;-70
2022/05/23 06:20:02;;;;;;;10.40;3.20;;;;;;;29.49;60.49;97217.09;4876639;29;20048;-71
2022/05/23 06:23:02;;;;;;;10.55;2.95;;;;;;;30.05;59.50;97227.41;4864482;29;20060;-71
2022/05/23 06:26:01;;;;;;;9.23;3.35;;;;;;;30.43;59.97;97238.19;4899835;29;20417;-70
2022/05/23 06:29:08;;;;;;;8.48;3.15;;;;;;;30.56;55.62;97238.22;4884198;29;20142;-68
2022/05/23 06:31:50;;;;;;;14.23;3.50;;;;;;;30.35;56.17;97233.09;4887957;29;20866;-68
2022/05/23 06:34:40;;;;;;;14.98;2.85;;;;;;;29.80;55.48;97218.34;4886491;29;20072;-67
2022/05/23 06:37:23;;;;;;;12.90;2.77;;;;;;;30.24;58.20;97215.13;4886029;29;20469;-66
2022/05/23 06:40:32;;;;;;;10.27;2.97;;;;;;;30.33;59.05;97217.34;4885342;29;20049;-67
2022/05/23 06:43:33;;;;;;;12.65;3.13;;;;;;;30.16;58.25;97218.00;4888950;29;20076;-66
2022/05/23 06:46:28;;;;;;;15.77;3.35;;;;;;;29.61;58.38;97209.38;4888425;29;20064;-67
2022/05/23 06:49:28;;;;;;;18.73;3.33;;;;;;;29.60;56.90;97215.69;4895447;29;20075;-66
2022/05/23 06:52:30;;;;;;;11.45;3.33;;;;;;;29.48;57.93;97211.97;4888609;29;20250;-67
2022/05/23 06:55:36;;;;;;;13.73;3.63;;;;;;;29.26;58.57;97216.59;4910606;29;20234;-66
2022/05/23 06:58:27;;;;;;;22.35;4.15;;;;;;;29.76;61.51;97211.84;4883618;29;20056;-66
2022/05/23 07:01:30;;;;;;;18.40;3.13;;;;;;;30.13;59.21;97205.94;4891666;29;20144;-67
2022/05/23 07:14:27;;;;;;;13.57;2.70;;;;;;;30.07;54.90;97168.75;4900108;29;20366;-67
2022/05/23 07:17:16;;;;;;;14.38;2.85;;;;;;;30.43;55.07;97177.88;4884400;29;20564;-67
2022/05/23 07:20:30;;;;;;;;;;;;;;;30.61;53.99;97174.59;4872348;29;20134;-67
2022/05/23 07:23:36;;;;;;;22.15;3.58;;;;;;;30.80;56.07;97179.03;4876825;29;19938;-66
2022/05/23 07:26:29;;;;;;;10.43;2.90;;;;;;;31.03;53.18;97175.88;4883598;29;20584;-67
2022/05/23 07:29:22;;;;;;;18.08;2.80;;;;;;;31.27;54.68;97174.34;4881930;29;20072;-67
2022/05/23 07:32:07;;;;;;;22.65;3.42;;;;;;;30.94;50.13;97168.31;4898337;29;20048;-68
2022/05/23 07:34:56;;;;;;;15.65;2.80;;;;;;;30.87;49.96;97170.19;4883524;29;20060;-67
2022/05/23 07:37:38;;;;;;;14.10;2.90;;;;;;;31.00;49.13;97167.47;4881060;29;20053;-67
2022/05/23 07:40:27;;;;;;;12.05;2.50;;;;;;;31.13;51.23;97157.59;4884086;29;20067;-67
2022/05/23 07:43:24;;;;;;;16.13;2.53;;;;;;;31.29;50.80;97156.28;4882079;29;20168;-67
2022/05/23 07:46:15;;;;;;;11.90;2.60;;;;;;;31.44;49.47;97158.66;4881163;29;20134;-67
2022/05/23 07:48:59;;;;;;;11.02;2.53;;;;;;;31.43;48.80;97165.03;4884298;29;20059;-66
2022/05/23 07:52:02;;;;;;;16.42;2.35;;;;;;;31.10;49.41;97162.56;4890962;29;20626;-68
2022/05/23 08:01:08;;;;;;;11.80;2.60;;;;;;;31.06;49.58;97188.75;4885598;29;20160;-67
2022/05/23 08:04:08;;;;;;;13.07;2.60;;;;;;;31.47;48.97;97193.66;4885603;29;20055;-66
2022/05/23 08:06:54;;;;;;;13.82;2.90;;;;;;;31.62;49.21;97197.88;4893387;29;20049;-67
2022/05/23 08:09:48;;;;;;;7.80;2.20;;;;;;;31.88;50.55;97198.50;4891273;29;20071;-67
2022/05/23 08:12:33;;;;;;;8.18;2.67;;;;;;;31.81;49.82;97196.94;4891778;29;20064;-68
2022/05/23 08:15:28;;;;;;;13.27;2.65;;;;;;;31.56;45.73;97194.22;4893697;29;20466;-67
2022/05/23 08:18:17;;;;;;;18.17;2.97;;;;;;;31.76;48.89;97186.13;4894637;29;20048;-67
2022/05/23 08:21:15;;;;;;;6.97;2.90;;;;;;;31.96;48.14;97184.09;4890335;29;20127;-66
2022/05/23 08:23:58;;;;;;;14.25;2.50;;;;;;;31.83;51.15;97178.91;4887396;29;20127;-66
2022/05/23 08:26:47;;;;;;;16.35;4.00;;;;;;;31.89;47.28;97188.66;4889915;29;20061;-67
2022/05/23 08:29:31;;;;;;;13.50;2.83;;;;;;;31.75;47.61;97187.97;4890639;29;20076;-67
2022/05/23 08:32:22;;;;;;;8.35;2.38;;;;;;;31.36;47.88;97181.03;4890148;29;20607;-66
2022/05/23 08:35:12;;;;;;;9.00;2.30;;;;;;;31.28;48.56;97173.31;4890155;29;20057;-67
2022/05/23 08:38:08;;;;;;;10.43;2.65;;;;;;;31.42;48.10;97180.19;4891199;29;20045;-67
2022/05/23 08:41:23;;;;;;;14.95;3.22;;;;;;;31.44;48.14;97170.13;4891101;29;20197;-69
2022/05/23 08:44:45;;;;;;;13.75;2.67;;;;;;;31.43;47.35;97168.50;4891406;29;20049;-67
2022/05/23 08:47:55;;;;;;;10.80;2.20;;;;;;;31.62;48.21;97169.41;4890024;29;20044;-68
2022/05/23 08:50:56;;;;;;;14.95;2.83;;;;;;;31.42;48.00;97166.88;4895685;29;20044;-68
2022/05/23 08:54:30;;;;;;;9.90;2.78;;;;;;;31.61;49.16;97170.44;4886752;29;20045;-67
2022/05/23 08:57:39;;;;;;;16.10;3.33;;;;;;;31.49;44.86;97162.31;4890320;29;20204;-67
2022/05/23 09:00:47;;;;;;;11.10;2.70;;;;;;;31.75;47.48;97166.66;4890375;29;20115;-66
2022/05/23 09:03:34;;;;;;;8.55;3.00;;;;;;;31.70;46.46;97169.13;4891782;29;20052;-66
2022/05/23 09:06:48;;;;;;;8.73;2.28;;;;;;;31.39;47.97;97167.28;4891972;29;20052;-67
2022/05/23 09:09:34;;;;;;;8.13;2.30;;;;;;;31.49;46.06;97167.63;4892179;29;20052;-67
2022/05/23 09:12:25;;;;;;;8.35;2.25;;;;;;;31.42;48.38;97160.72;4889314;29;20059;-67
2022/05/23 09:15:08;;;;;;;8.35;1.90;;;;;;;31.50;46.63;97171.13;4902284;29;20059;-66
2022/05/23 09:18:02;;;;;;;10.25;2.50;;;;;;;31.26;48.25;97156.72;4897195;29;20108;-67
2022/05/23 09:20:53;;;;;;;7.25;2.42;;;;;;;31.20;46.69;97151.44;4898073;28;20115;-66
2022/05/23 09:23:55;;;;;;;20.05;2.88;;;;;;;31.45;45.09;97161.09;4893039;29;20133;-68
2022/05/23 09:26:52;;;;;;;18.87;3.40;;;;;;;31.27;48.10;97158.38;4891108;29;20146;-67
2022/05/23 09:29:41;;;;;;;18.30;2.55;;;;;;;31.06;47.51;97145.34;4892131;29;20300;-67
2022/05/23 09:32:34;;;;;;;8.55;2.72;;;;;;;31.22;46.70;97147.53;4888742;29;20671;-67
2022/05/23 09:35:23;;;;;;;15.52;2.50;;;;;;;31.30;47.50;97147.28;4900396;29;20060;-67
2022/05/23 09:38:32;;;;;;;12.20;2.72;;;;;;;31.37;48.19;97142.72;4904628;29;20056;-66
2022/05/23 09:48:16;;;;;;;15.13;3.17;;;;;;;31.47;45.32;97132.41;4898749;29;20131;-67
2022/05/23 09:51:06;;;;;;;16.42;3.03;;;;;;;31.42;45.33;97134.91;4897296;29;20627;-67
2022/05/23 09:53:55;;;;;;;11.32;3.22;;;;;;;31.44;45.93;97127.53;4886617;29;20095;-67
2022/05/23 09:56:48;;;;;;;10.38;2.63;;;;;;;31.45;46.09;97112.38;4887840;29;20155;-67
2022/05/23 09:59:38;;;;;;;8.07;2.17;;;;;;;31.31;44.60;97101.00;4887127;29;20111;-68
2022/05/23 10:03:05;;;;;;;10.90;2.22;;;;;;;31.46;47.83;97098.00;4887255;29;20051;-67
2022/05/23 10:06:11;;;;;;;9.80;2.45;;;;;;;31.49;45.08;97097.59;4879801;29;20365;-68
2022/05/23 10:08:55;;;;;;;19.70;2.63;;;;;;;31.45;43.85;97096.41;4888520;29;20060;-67
2022/05/23 10:12:04;;;;;;;8.77;2.20;;;;;;;31.38;45.48;97101.75;4887930;29;20137;-67
2022/05/23 10:14:58;;;;;;;12.73;2.90;;;;;;;31.51;45.93;97100.84;4890789;29;20377;-67
2022/05/23 10:18:08;;;;;;;12.98;2.60;;;;;;;31.24;46.85;97102.88;4888407;29;20507;-67
2022/05/23 10:20:58;;;;;;;11.05;2.20;;;;;;;31.45;46.28;97101.72;4887200;29;20139;-69
2022/05/23 10:23:40;;;;;;;11.18;2.58;;;;;;;31.50;46.27;97104.53;4886135;29;20064;-69
2022/05/23 10:26:38;;;;;;;11.02;2.28;;;;;;;31.58;45.85;97101.63;4888167;29;20044;-68
2022/05/23 10:29:24;;;;;;;14.40;4.05;;;;;;;31.73;44.84;97110.13;4874110;29;20045;-66
2022/05/23 10:32:20;;;;;;;13.43;2.80;;;;;;;31.68;46.63;97101.97;4872287;29;20060;-67
2022/05/23 10:35:22;;;;;;;10.88;2.30;;;;;;;31.55;45.37;97094.88;4872645;29;20163;-69
2022/05/23 10:42:07;;;;;;;11.35;2.70;;;;;;;31.62;45.06;97102.00;4871612;29;20052;-65
2022/05/23 10:45:16;;;;;;;12.32;3.22;;;;;;;31.34;46.98;97105.06;4872679;29;20067;-67
2022/05/23 10:48:21;;;;;;;16.27;2.60;;;;;;;31.46;44.95;97095.34;4903021;29;20050;-65
2022/05/23 10:51:41;;;;;;;13.82;2.70;;;;;;;31.45;46.32;97102.50;4880412;29;20292;-65
2022/05/23 10:54:46;;;;;;;7.03;2.33;;;;;;;31.27;47.96;97115.78;4881361;29;20052;-66
2022/05/23 10:57:49;;;;;;;11.68;2.47;;;;;;;31.27;48.90;97120.28;4881457;29;20060;-66
2022/05/23 11:00:41;;;;;;;14.68;3.03;;;;;;;31.30;47.63;97125.16;4882941;29;20373;-65
2022/05/23 11:03:34;;;;;;;15.57;2.33;;;;;;;31.35;47.15;97139.47;4881216;29;20053;-65
2022/05/23 11:06:42;;;;;;;10.95;2.17;;;;;;;31.32;48.74;97134.56;4881131;29;20049;-65
2022/05/23 11:09:40;;;;;;;7.18;1.92;;;;;;;31.27;49.65;97121.09;4878234;29;20053;-65
2022/05/23 11:12:33;;;;;;;8.90;2.30;;;;;;;31.21;50.72;97116.63;4879030;29;20055;-65
2022/05/23 11:15:41;;;;;;;10.82;2.28;;;;;;;31.18;48.70;97114.41;4879762;29;20067;-63
2022/05/23 11:18:42;;;;;;;14.02;2.67;;;;;;;31.26;52.40;97105.34;4877003;29;20052;-66
2022/05/23 11:21:47;;;;;;;4.78;2.10;;;;;;;31.24;51.74;97092.25;4881334;29;20060;-66
2022/05/23 11:25:09;;;;;;;11.35;3.03;;;;;;;31.31;47.84;97100.16;4881608;29;20128;-66
2022/05/23 11:34:58;;;;;;;16.17;3.05;;;;;;;31.46;45.91;97098.81;4882383;29;20056;-64
2022/05/23 11:37:45;;;;;;;10.38;2.70;;;;;;;31.55;46.70;97102.03;4889659;29;20048;-68
2022/05/23 11:40:34;;;;;;;10.90;3.17;;;;;;;31.52;47.09;97103.31;4537898;29;10000674;-67
2022/05/23 11:43:30;;;;;;;13.60;2.88;;;;;;;31.53;46.80;97115.56;4547459;29;9999770;-68
2022/05/23 11:46:11;;;;;;;16.77;2.88;;;;;;;31.59;44.51;97108.56;4888077;29;20132;-67
2022/05/23 11:49:11;;;;;;;6.55;3.05;;;;;;;31.65;43.72;97106.91;4888067;29;20071;-68
2022/05/23 11:52:02;;;;;;;10.38;3.45;;;;;;;31.65;44.87;97106.91;4887264;29;20139;-68
2022/05/23 11:54:52;;;;;;;13.73;3.08;;;;;;;31.55;44.71;97102.03;4887215;29;20140;-67
2022/05/23 11:57:46;;;;;;;10.52;3.03;;;;;;;31.59;44.27;97099.78;4886974;29;20421;-67
2022/05/23 12:01:14;;;;;;;11.38;3.58;;;;;;;31.56;43.83;97104.50;4896315;29;20114;-66
2022/05/23 12:04:08;;;;;;;14.77;3.20;;;;;;;31.66;46.51;97103.22;4905333;29;20060;-65
2022/05/23 12:06:57;;;;;;;13.82;3.03;;;;;;;31.60;45.84;97096.06;4899728;29;20061;-67
2022/05/23 12:09:44;;;;;;;10.52;3.00;;;;;;;31.59;46.77;97102.44;4895399;29;20066;-67
2022/05/23 12:12:47;;;;;;;22.60;4.65;;;;;;;31.58;46.83;97095.47;4887820;29;20052;-67
2022/05/23 12:15:53;;;;;;;12.65;3.20;;;;;;;31.55;44.83;97097.53;4868976;29;20667;-66
2022/05/23 12:18:55;;;;;;;7.45;2.80;;;;;;;31.66;43.96;97100.56;4869403;29;20375;-66
2022/05/23 12:21:36;;;;;;;16.10;3.42;;;;;;;31.51;47.24;97096.34;4872846;29;20162;-65
2022/05/23 12:24:33;;;;;;;14.05;3.58;;;;;;;31.55;44.94;97105.50;4891435;29;20094;-66
2022/05/23 12:27:41;;;;;;;9.52;2.47;;;;;;;31.48;44.19;97104.75;4897714;29;20052;-67
2022/05/23 12:30:35;;;;;;;14.77;2.30;;;;;;;31.41;45.43;97097.84;4880862;29;20056;-68
2022/05/23 12:33:40;;;;;;;9.90;2.03;;;;;;;31.40;43.89;97093.56;4875035;29;20318;-67
2022/05/23 12:36:54;;;;;;;18.85;2.15;;;;;;;31.40;43.74;97086.38;4883526;29;20790;-66
2022/05/23 12:40:00;;;;;;;15.93;2.10;;;;;;;31.37;45.02;97088.69;4880300;29;20059;-65
2022/05/23 12:43:19;;;;;;;14.02;2.53;;;;;;;31.17;46.73;97088.81;4875414;29;20057;-65
2022/05/23 12:46:23;;;;;;;15.00;2.50;;;;;;;31.17;45.74;97099.47;4881756;29;20728;-68
2022/05/23 12:49:43;;;;;;;9.52;2.60;;;;;;;31.17;46.56;97107.44;4875391;29;20075;-65
2022/05/23 12:52:44;;;;;;;10.18;2.60;;;;;;;31.04;45.03;97105.66;4872028;29;20048;-67
2022/05/23 12:55:48;;;;;;;12.18;2.25;;;;;;;30.85;46.29;97105.75;4887982;29;20484;-67
2022/05/23 12:59:08;;;;;;;9.18;2.65;;;;;;;30.86;45.42;97115.38;4872822;29;20053;-66
2022/05/23 13:01:57;;;;;;;10.57;2.58;;;;;;;30.64;47.08;97122.84;4879147;29;20167;-66
2022/05/23 13:05:12;;;;;;;15.13;2.70;;;;;;;30.67;47.68;97112.59;4881287;29;20067;-66
2022/05/23 13:08:10;;;;;;;7.93;3.08;;;;;;;30.61;47.94;97110.78;4880438;29;20494;-67
2022/05/23 13:10:55;;;;;;;16.15;3.45;;;;;;;30.36;51.68;97118.59;4549001;29;10000134;-69
2022/05/23 13:13:49;;;;;;;9.60;2.67;;;;;;;30.18;53.19;97130.91;4883549;29;20072;-66
2022/05/23 13:16:37;;;;;;;11.52;2.95;;;;;;;30.08;50.83;97139.31;4890329;29;20067;-66
2022/05/23 13:22:31;;;;;;;11.73;2.97;;;;;;;29.90;53.86;97160.34;4889667;29;20068;-64
2022/05/23 13:25:28;;;;;;;9.70;2.88;;;;;;;29.87;56.08;97164.22;4887121;29;20083;-64
2022/05/23 13:28:20;;;;;;;15.02;3.08;;;;;;;29.76;52.39;97169.34;4898402;29;20070;-66
2022/05/23 13:31:30;;;;;;;13.32;2.75;;;;;;;29.76;51.41;97164.84;4897805;29;20052;-66
2022/05/23 13:34:10;;;;;;;13.90;2.78;;;;;;;29.80;49.53;97157.28;4896230;29;20064;-65
2022/05/23 13:37:01;;;;;;;13.68;3.03;;;;;;;29.79;49.78;97153.81;4899520;29;20044;-65
2022/05/23 13:39:52;;;;;;;9.15;2.67;;;;;;;29.81;48.34;97172.19;4894574;29;20048;-65
2022/05/23 13:42:41;;;;;;;12.05;3.10;;;;;;;29.84;48.74;97188.56;4897926;29;20072;-66
2022/05/23 13:45:33;;;;;;;10.50;2.97;;;;;;;29.86;48.25;97196.28;4888581;29;20111;-66
2022/05/23 13:48:30;;;;;;;23.65;3.15;;;;;;;29.82;53.74;97177.31;4884528;29;20132;-66
2022/05/23 13:51:39;;;;;;;13.65;2.72;;;;;;;29.78;51.37;97184.03;4879837;29;20552;-67
2022/05/23 13:54:47;;;;;;;19.38;4.03;;;;;;;29.69;54.28;97180.75;4891877;29;20073;-66
2022/05/23 13:57:49;;;;;;;8.73;2.90;;;;;;;29.67;51.61;97174.84;4898220;29;20116;-65
2022/05/23 14:00:36;;;;;;;11.98;3.50;;;;;;;29.71;51.06;97166.47;4893541;29;20139;-66
2022/05/23 14:03:31;;;;;;;12.15;3.42;;;;;;;29.74;50.52;97161.56;4878649;29;20080;-66
2022/05/23 14:06:21;;;;;;;13.98;3.75;;;;;;;29.75;49.16;97160.56;4878942;29;20060;-66
2022/05/23 14:09:13;;;;;;;7.90;2.50;;;;;;;29.68;49.80;97157.91;4892829;29;20053;-66
2022/05/23 14:12:12;;;;;;;12.35;2.45;;;;;;;29.61;50.57;97167.69;4895102;29;20810;-65
2022/05/23 14:14:57;;;;;;;12.15;2.65;;;;;;;29.64;48.67;97163.81;4891697;29;20083;-66
2022/05/23 14:17:49;;;;;;;14.52;3.25;;;;;;;29.50;55.82;97154.22;4542310;29;10000244;-65
2022/05/23 14:20:48;;;;;;;10.77;3.10;;;;;;;29.17;55.27;97170.03;4883296;29;20123;-65
2022/05/23 14:23:34;;;;;;;12.52;3.13;;;;;;;28.81;67.77;97186.25;4880672;29;20525;-64
2022/05/23 14:26:28;;;;;;;12.70;3.47;;;;;;;28.50;77.80;97195.41;4897758;29;20072;-65
2022/05/23 14:29:14;;;;;;;12.35;3.67;;;;;;;28.21;78.24;97200.94;4878532;29;20037;-64
2022/05/23 14:32:03;;;;;;;19.23;3.80;;;;;;;28.07;81.98;97218.53;4875686;29;20049;-64
2022/05/23 14:34:52;;;;;;;11.82;3.42;;;;;;;27.78;78.97;97232.75;4888990;29;20063;-64